Main page
METAR-TAF:

METAR-TAF

Airports :

N'Djamena International Airport

N'Djamena, Chad

latitude: 12-08N, longitude: 015-02E, elevation: 295 m

Current weather observation

The report was made 53 minutes ago, at 08:00 UTC
Wind 12 kt from the Northeast
Temperature 35°C
Humidity 9%
Pressure 1007 hPa
Visibility: 8000 m

METAR: FTTJ 210800Z 04012KT 8000 NSC 35/M03 Q1007 NOSIG

Time: 09:53 (08:53 UTC)

Forecast

The report was made 3 hours and 53 minutes ago, at 05:00 UTC
Forecast valid from 21 at 06 UTC to 22 at 12 UTC
Wind 6 kt from the North/Northeast
Visibility: 7000 m
Temporary
from 21 at 07 UTC to 21 at 13 UTC
Visibility: 4000 m
haze

TAF: FTTJ 210500Z 2106/2212 03006KT 7000 NSC TEMPO 2107/2113 4000 HZ

Weather observations and forecasts of more than 4000 airports (METAR and TAF reports).

The available stations are represented by yellow and red dots on the map.

Hover mouse over dot to see the name of the station.

Then click to see weather observations and forecasts.

To change the map : click on the green buttons with a black cross to zoom in, on the green button with a dash to zoom out, or on the green arrows for adjacent maps.


METAR-TAF: